Time;durP1;ratioP1;P1;durP2;ratioP2;P2;SDS_P1;SDS_P2;PMS_P1;PMS_P2;Temp;Humidity;BMP_temperature;BMP_pressure;BME280_temperature;BME280_humidity;BME280_pressure;Samples;Min_cycle;Max_cycle;Signal;HPM_P1;HPM_P2
2021/07/25 00:01:14;;;;;;;34.77;31.17;;;17.10;99.90;;;;;;4980776;28;20472;-60
2021/07/25 00:03:42;;;;;;;29.80;26.80;;;17.10;99.90;;;;;;4980909;28;20466;-61
2021/07/25 00:06:17;;;;;;;31.47;28.27;;;17.10;99.90;;;;;;4983968;28;20898;-61
2021/07/25 00:08:45;;;;;;;32.83;29.43;;;17.10;99.90;;;;;;4999665;28;20471;-61
2021/07/25 00:11:13;;;;;;;30.63;27.40;;;17.00;99.90;;;;;;4986682;28;20535;-61
2021/07/25 00:13:46;;;;;;;31.50;28.43;;;17.00;99.90;;;;;;4980851;28;20500;-61
2021/07/25 00:16:14;;;;;;;30.73;27.63;;;17.10;99.90;;;;;;4980684;28;20524;-61
2021/07/25 00:18:41;;;;;;;34.37;28.60;;;17.00;99.90;;;;;;4980394;28;20473;-60
2021/07/25 00:21:12;;;;;;;30.10;26.53;;;17.00;99.90;;;;;;4979300;28;20477;-60
2021/07/25 00:23:43;;;;;;;27.80;24.80;;;17.00;99.90;;;;;;4990563;28;20458;-60
2021/07/25 00:26:14;;;;;;;30.07;27.23;;;17.00;99.90;;;;;;4999099;28;20519;-60
2021/07/25 00:28:42;;;;;;;30.03;26.90;;;17.10;99.90;;;;;;4980370;28;20476;-60
2021/07/25 00:31:09;;;;;;;31.03;27.70;;;17.10;99.90;;;;;;4980451;28;20564;-61
2021/07/25 00:33:40;;;;;;;30.10;27.03;;;17.20;99.90;;;;;;4980310;28;20505;-61
2021/07/25 00:36:13;;;;;;;31.50;27.70;;;17.20;99.90;;;;;;4980020;28;20785;-61
2021/07/25 00:38:40;;;;;;;27.53;24.83;;;17.30;99.90;;;;;;4980094;28;20470;-61
2021/07/25 00:41:11;;;;;;;29.97;27.03;;;17.30;99.90;;;;;;4979630;28;20462;-61
2021/07/25 00:43:38;;;;;;;29.90;27.00;;;17.30;99.90;;;;;;4980520;28;20458;-61
2021/07/25 00:46:07;;;;;;;29.70;26.73;;;17.40;99.90;;;;;;4980092;28;20470;-61
2021/07/25 00:48:36;;;;;;;30.90;27.77;;;17.40;99.90;;;;;;4979764;28;20934;-61
2021/07/25 00:51:05;;;;;;;30.13;27.07;;;17.40;99.90;;;;;;4980444;28;20817;-61
2021/07/25 00:53:34;;;;;;;30.50;27.07;;;17.40;99.90;;;;;;4979741;28;20506;-61
2021/07/25 00:56:02;;;;;;;30.37;27.37;;;17.40;99.90;;;;;;4980081;28;20887;-61
2021/07/25 00:58:32;;;;;;;29.10;26.20;;;17.50;99.90;;;;;;4979429;28;20473;-61
2021/07/25 01:01:00;;;;;;;32.03;28.63;;;17.50;99.90;;;;;;4980032;28;20469;-61
2021/07/25 01:03:41;;;;;;;30.07;26.97;;;17.50;99.90;;;;;;4979395;28;20466;-61
2021/07/25 01:06:19;;;;;;;31.73;28.40;;;17.40;99.90;;;;;;4974122;28;20466;-61
2021/07/25 01:08:53;;;;;;;29.07;26.00;;;17.40;99.90;;;;;;4998213;28;20430;-61
2021/07/25 01:11:21;;;;;;;31.10;27.93;;;17.40;99.90;;;;;;4989528;28;20736;-61
2021/07/25 01:13:51;;;;;;;33.13;29.93;;;17.40;99.90;;;;;;4979024;28;20501;-61
2021/07/25 01:16:21;;;;;;;31.07;27.97;;;17.40;99.90;;;;;;4994630;28;20493;-61
2021/07/25 01:18:50;;;;;;;34.60;31.30;;;17.30;99.90;;;;;;4999272;28;20475;-61
2021/07/25 01:21:20;;;;;;;32.33;28.93;;;17.40;99.90;;;;;;4999061;28;20464;-61
2021/07/25 01:23:49;;;;;;;31.40;27.80;;;17.40;99.90;;;;;;4997972;28;20464;-61
2021/07/25 01:26:21;;;;;;;32.57;29.17;;;17.40;99.90;;;;;;4997715;28;20535;-61
2021/07/25 01:28:51;;;;;;;32.43;29.13;;;17.40;99.90;;;;;;4979325;28;20781;-61
2021/07/25 01:31:22;;;;;;;33.53;30.03;;;17.40;99.90;;;;;;4979516;28;20469;-61
2021/07/25 01:33:50;;;;;;;31.50;28.07;;;17.40;99.90;;;;;;4977995;28;21029;-61
2021/07/25 01:36:20;;;;;;;32.33;28.97;;;17.40;99.90;;;;;;4979249;28;20808;-61
2021/07/25 01:38:48;;;;;;;32.77;29.27;;;17.40;99.90;;;;;;4979587;28;20473;-61
2021/07/25 01:41:16;;;;;;;30.50;27.47;;;17.50;99.90;;;;;;4978920;28;20520;-61
2021/07/25 01:43:44;;;;;;;33.00;29.50;;;17.50;99.90;;;;;;4978733;28;20437;-61
2021/07/25 01:46:12;;;;;;;36.00;30.87;;;17.50;99.90;;;;;;4979335;28;20918;-61
2021/07/25 01:48:39;;;;;;;32.37;28.90;;;17.50;99.90;;;;;;4978970;28;20455;-61
2021/07/25 01:51:07;;;;;;;29.43;26.43;;;17.50;99.90;;;;;;4978331;28;20461;-61
2021/07/25 01:53:38;;;;;;;35.03;31.27;;;17.50;99.90;;;;;;4978111;28;20501;-61
2021/07/25 01:56:05;;;;;;;33.03;29.63;;;17.60;99.90;;;;;;4978750;28;20474;-61
2021/07/25 01:58:32;;;;;;;33.03;29.47;;;17.60;99.90;;;;;;4978716;28;20767;-61
2021/07/25 02:01:00;;;;;;;30.40;27.30;;;17.50;99.90;;;;;;4978607;28;20473;-61
2021/07/25 02:03:28;;;;;;;30.80;27.70;;;17.60;99.90;;;;;;4974525;28;20907;-61
2021/07/25 02:05:56;;;;;;;34.43;29.00;;;17.60;99.90;;;;;;4978417;28;20482;-61
2021/07/25 02:08:27;;;;;;;29.37;26.47;;;17.60;99.90;;;;;;4977796;28;20552;-61
2021/07/25 02:10:55;;;;;;;32.57;29.07;;;17.60;99.90;;;;;;4978604;28;20477;-61
2021/07/25 02:13:24;;;;;;;31.03;27.07;;;17.60;99.90;;;;;;4978288;28;20490;-61
2021/07/25 02:15:51;;;;;;;29.03;26.03;;;17.60;99.90;;;;;;4978700;28;20472;-61
2021/07/25 02:18:19;;;;;;;31.50;28.27;;;17.60;99.90;;;;;;4979222;28;20470;-61
2021/07/25 02:20:48;;;;;;;30.47;27.23;;;17.50;99.90;;;;;;4978139;28;20469;-61
2021/07/25 02:23:15;;;;;;;29.43;26.53;;;17.50;99.90;;;;;;4978163;28;20552;-61
2021/07/25 02:25:42;;;;;;;29.47;26.57;;;17.60;99.90;;;;;;4978487;28;20477;-61
2021/07/25 02:28:11;;;;;;;30.53;27.43;;;17.50;99.90;;;;;;4977799;28;20458;-61
2021/07/25 02:30:39;;;;;;;29.53;26.60;;;17.60;99.90;;;;;;4978258;28;20473;-61
2021/07/25 02:33:06;;;;;;;30.73;27.03;;;17.50;99.90;;;;;;4978277;28;20493;-61
2021/07/25 02:35:34;;;;;;;32.13;26.30;;;17.50;99.90;;;;;;4978256;28;20447;-61
2021/07/25 02:38:01;;;;;;;28.83;26.03;;;17.40;99.90;;;;;;4978326;28;20466;-61
2021/07/25 02:40:29;;;;;;;28.53;25.83;;;17.40;99.90;;;;;;4978078;28;20488;-61
2021/07/25 02:42:58;;;;;;;30.23;27.23;;;17.30;99.90;;;;;;4978184;28;20440;-61
2021/07/25 02:45:27;;;;;;;29.30;26.50;;;17.30;99.90;;;;;;4980798;28;20883;-61
2021/07/25 02:47:54;;;;;;;32.77;29.57;;;17.20;99.90;;;;;;4982041;28;20500;-61
2021/07/25 02:50:21;;;;;;;29.80;26.87;;;17.20;99.90;;;;;;4982796;28;20485;-61
2021/07/25 02:52:48;;;;;;;29.07;26.37;;;17.10;99.90;;;;;;4981615;28;20572;-61
2021/07/25 02:55:16;;;;;;;29.70;26.60;;;17.10;99.90;;;;;;4981931;28;20497;-61
2021/07/25 02:57:43;;;;;;;29.37;26.47;;;16.90;99.90;;;;;;4982273;28;20470;-61
2021/07/25 03:00:12;;;;;;;30.83;27.53;;;16.80;99.90;;;;;;4982329;28;20880;-61
2021/07/25 03:02:40;;;;;;;31.50;28.40;;;16.80;99.90;;;;;;4979970;28;20536;-62
2021/07/25 03:05:09;;;;;;;32.13;28.83;;;16.70;99.90;;;;;;4980116;28;20477;-62
2021/07/25 03:07:36;;;;;;;31.40;28.13;;;16.60;99.90;;;;;;4981317;28;20466;-62
2021/07/25 03:10:03;;;;;;;31.57;28.20;;;16.60;99.90;;;;;;4981570;28;20484;-62
2021/07/25 03:12:31;;;;;;;31.50;28.17;;;16.60;99.90;;;;;;4981373;28;20895;-62
2021/07/25 03:14:58;;;;;;;32.67;28.60;;;16.60;99.90;;;;;;4981531;28;20533;-62
2021/07/25 03:17:25;;;;;;;29.77;26.67;;;16.50;99.90;;;;;;4982030;28;20751;-61
2021/07/25 03:19:54;;;;;;;29.87;26.70;;;16.40;99.90;;;;;;4981779;28;20469;-62
2021/07/25 03:22:22;;;;;;;29.93;26.77;;;16.40;99.90;;;;;;4981547;28;20461;-61
2021/07/25 03:24:49;;;;;;;30.27;27.30;;;16.40;99.90;;;;;;4981422;28;20472;-61
2021/07/25 03:27:16;;;;;;;31.27;28.00;;;16.40;99.90;;;;;;4981058;28;20462;-62
2021/07/25 03:29:43;;;;;;;30.53;27.33;;;16.40;99.90;;;;;;4981254;28;20470;-62
2021/07/25 03:32:10;;;;;;;31.50;28.23;;;16.40;99.90;;;;;;4981627;28;20895;-62
2021/07/25 03:34:38;;;;;;;29.63;26.60;;;16.40;99.90;;;;;;4981240;28;20922;-62
2021/07/25 03:37:07;;;;;;;29.90;26.80;;;16.30;99.90;;;;;;4981301;28;20440;-62
2021/07/25 03:39:34;;;;;;;29.77;26.47;;;16.30;99.90;;;;;;4980925;28;20584;-62
2021/07/25 03:42:01;;;;;;;30.50;27.20;;;16.40;99.90;;;;;;4981440;28;20476;-62
2021/07/25 03:44:28;;;;;;;31.47;28.30;;;16.40;99.90;;;;;;4980834;28;20462;-62
2021/07/25 03:46:56;;;;;;;32.70;29.30;;;16.40;99.90;;;;;;4981269;28;20470;-62
2021/07/25 03:49:25;;;;;;;32.83;29.43;;;16.40;99.90;;;;;;4981022;28;20922;-62
2021/07/25 03:51:52;;;;;;;32.63;29.07;;;16.40;99.90;;;;;;4981187;28;20493;-62
2021/07/25 03:54:21;;;;;;;31.07;27.87;;;16.40;99.90;;;;;;4980534;28;20509;-63
2021/07/25 03:56:48;;;;;;;30.87;27.80;;;16.40;99.90;;;;;;4980693;28;20470;-63
2021/07/25 03:59:15;;;;;;;32.80;29.30;;;16.30;99.90;;;;;;4980771;28;20452;-63
2021/07/25 04:01:42;;;;;;;32.27;28.83;;;16.30;99.90;;;;;;4981291;28;20914;-63
2021/07/25 04:04:09;;;;;;;31.67;28.37;;;16.30;99.90;;;;;;4972828;28;20856;-64
2021/07/25 04:06:37;;;;;;;32.63;28.37;;;16.30;99.90;;;;;;4980120;28;20842;-64
2021/07/25 04:09:04;;;;;;;30.33;27.17;;;16.30;99.90;;;;;;4980088;28;20537;-64
2021/07/25 04:11:32;;;;;;;32.80;29.37;;;16.30;99.90;;;;;;4981037;28;20440;-64
2021/07/25 04:13:59;;;;;;;30.47;25.97;;;16.30;99.90;;;;;;4980542;28;20545;-64
2021/07/25 04:16:27;;;;;;;30.43;26.17;;;16.40;99.90;;;;;;4980696;28;20461;-64
2021/07/25 04:18:54;;;;;;;29.40;25.83;;;16.40;99.90;;;;;;4980194;28;20780;-64
2021/07/25 04:21:23;;;;;;;26.87;24.00;;;16.40;99.90;;;;;;4980524;28;20730;-64
2021/07/25 04:23:50;;;;;;;29.70;25.27;;;16.50;99.90;;;;;;4980847;28;20462;-64
2021/07/25 04:26:18;;;;;;;26.53;23.30;;;16.50;99.90;;;;;;4980737;28;20880;-64
2021/07/25 04:28:47;;;;;;;28.30;25.40;;;16.40;99.90;;;;;;4980488;28;20473;-65
2021/07/25 04:31:15;;;;;;;25.63;22.93;;;16.40;99.90;;;;;;4980933;28;20491;-65
2021/07/25 04:33:45;;;;;;;26.40;23.80;;;16.40;99.90;;;;;;4980452;28;20498;-65
2021/07/25 04:36:24;;;;;;;25.70;23.10;;;16.50;99.90;;;;;;4979141;28;20899;-65
2021/07/25 04:38:52;;;;;;;25.90;23.10;;;16.50;99.90;;;;;;4979998;28;20472;-65
2021/07/25 04:41:24;;;;;;;24.27;21.80;;;16.50;99.90;;;;;;4980171;28;20474;-65
2021/07/25 04:44:00;;;;;;;23.33;20.67;;;16.50;99.90;;;;;;4980390;28;20764;-66
2021/07/25 04:46:29;;;;;;;24.33;21.83;;;16.40;99.90;;;;;;4979700;28;20469;-66
2021/07/25 04:49:03;;;;;;;23.33;20.87;;;16.50;99.90;;;;;;4979944;28;20469;-66
2021/07/25 04:51:31;;;;;;;23.37;20.87;;;16.50;99.90;;;;;;4979808;28;20485;-66
2021/07/25 04:54:05;;;;;;;22.70;20.00;;;16.50;99.90;;;;;;4980142;28;20935;-66
2021/07/25 04:56:40;;;;;;;23.87;21.37;;;16.50;99.90;;;;;;4979809;28;20833;-66
2021/07/25 04:59:19;;;;;;;22.17;19.87;;;16.50;99.90;;;;;;4979968;28;20587;-66
2021/07/25 05:01:47;;;;;;;21.50;19.30;;;16.50;99.90;;;;;;4979462;28;20542;-66
2021/07/25 05:04:16;;;;;;;23.33;20.20;;;16.60;99.90;;;;;;4976545;28;20466;-66
2021/07/25 05:06:46;;;;;;;21.73;19.60;;;16.60;99.90;;;;;;4978668;28;20486;-66
2021/07/25 05:09:14;;;;;;;22.03;19.83;;;16.70;99.90;;;;;;4979277;28;20855;-66
2021/07/25 05:11:45;;;;;;;24.00;18.47;;;16.70;99.90;;;;;;4979402;28;20472;-66
2021/07/25 05:14:22;;;;;;;21.40;19.20;;;16.80;99.90;;;;;;4979738;28;20488;-66
2021/07/25 05:17:00;;;;;;;20.10;18.00;;;16.90;99.90;;;;;;4979536;28;20466;-66
2021/07/25 05:19:35;;;;;;;20.07;17.97;;;17.00;99.90;;;;;;4979592;28;20444;-66
2021/07/25 05:22:15;;;;;;;19.47;17.50;;;17.00;99.90;;;;;;4979068;28;20457;-66
2021/07/25 05:24:45;;;;;;;17.80;16.20;;;17.10;99.90;;;;;;4979070;28;20521;-66
2021/07/25 05:27:22;;;;;;;17.43;15.67;;;17.10;99.90;;;;;;4979523;28;20729;-66
2021/07/25 05:29:53;;;;;;;17.33;15.53;;;17.20;99.90;;;;;;4979565;28;20883;-65
2021/07/25 05:32:20;;;;;;;18.07;16.23;;;17.20;99.90;;;;;;4979437;28;20520;-65
2021/07/25 05:34:50;;;;;;;16.40;14.80;;;17.30;99.90;;;;;;4978788;28;20767;-65
2021/07/25 05:37:17;;;;;;;16.17;13.90;;;17.40;99.90;;;;;;4978884;28;20470;-65
2021/07/25 05:39:44;;;;;;;15.83;14.30;;;17.40;99.90;;;;;;4979073;28;20466;-65
2021/07/25 05:42:12;;;;;;;14.40;13.20;;;17.50;99.90;;;;;;4977777;28;20453;-65
2021/07/25 05:44:42;;;;;;;14.93;13.43;;;17.60;99.90;;;;;;4979057;28;20504;-65
2021/07/25 05:47:10;;;;;;;13.70;12.40;;;17.60;99.90;;;;;;4978810;28;20472;-65
2021/07/25 05:49:37;;;;;;;13.97;12.60;;;17.70;99.90;;;;;;4977551;28;20465;-65
2021/07/25 05:52:12;;;;;;;14.83;13.07;;;17.80;99.90;;;;;;4977539;28;20922;-65
2021/07/25 05:54:39;;;;;;;13.23;11.93;;;17.90;99.90;;;;;;4976985;28;20536;-65
2021/07/25 05:57:06;;;;;;;12.53;11.33;;;18.10;99.90;;;;;;4977048;28;20470;-64
2021/07/25 05:59:33;;;;;;;12.20;11.00;;;18.20;99.90;;;;;;4978115;28;20473;-64
2021/07/25 06:02:02;;;;;;;10.57;9.40;;;18.30;99.90;;;;;;4978047;28;20473;-64
2021/07/25 06:04:30;;;;;;;11.13;9.70;;;18.50;99.90;;;;;;4970136;28;20509;-63
2021/07/25 06:06:58;;;;;;;11.47;9.77;;;18.70;99.90;;;;;;4978419;28;20461;-63
2021/07/25 06:09:25;;;;;;;9.80;8.90;;;18.80;99.90;;;;;;4978024;28;20466;-62
2021/07/25 06:11:53;;;;;;;12.40;10.23;;;19.00;99.90;;;;;;4978734;28;20482;-62
2021/07/25 06:14:20;;;;;;;11.73;10.63;;;19.10;99.90;;;;;;4978412;28;20494;-62
2021/07/25 06:16:47;;;;;;;10.23;9.23;;;19.20;99.90;;;;;;4978709;28;20476;-61
2021/07/25 06:19:14;;;;;;;10.20;9.20;;;19.30;99.90;;;;;;4978754;28;20784;-61
2021/07/25 06:21:42;;;;;;;9.77;8.90;;;19.40;99.90;;;;;;4977988;28;20461;-59
2021/07/25 06:24:12;;;;;;;8.67;7.97;;;19.60;99.90;;;;;;4978526;28;20793;-59
2021/07/25 06:26:43;;;;;;;9.27;8.47;;;19.70;99.90;;;;;;4977971;28;20458;-59
2021/07/25 06:29:13;;;;;;;9.33;8.50;;;20.00;99.90;;;;;;4978904;28;20468;-56
2021/07/25 06:31:40;;;;;;;9.97;8.43;;;20.00;99.90;;;;;;4978536;28;20473;-57
2021/07/25 06:34:07;;;;;;;9.70;8.80;;;20.10;99.90;;;;;;4994567;28;20914;-57
2021/07/25 06:36:35;;;;;;;9.80;8.80;;;20.30;99.90;;;;;;4997293;28;20477;-58
2021/07/25 06:39:03;;;;;;;10.47;9.07;;;20.40;99.90;;;;;;4988275;28;20500;-58
2021/07/25 06:41:30;;;;;;;7.83;7.17;;;20.60;99.90;;;;;;4977851;28;20476;-58
2021/07/25 06:43:57;;;;;;;9.90;7.63;;;20.90;99.90;;;;;;4978231;28;20441;-54
2021/07/25 06:46:27;;;;;;;8.97;8.07;;;21.10;99.90;;;;;;4977788;28;20466;-56
2021/07/25 06:48:54;;;;;;;8.10;7.30;;;21.20;99.90;;;;;;4978406;28;20930;-57
2021/07/25 06:51:24;;;;;;;7.93;7.23;;;21.50;99.90;;;;;;4978272;28;20472;-56
2021/07/25 06:53:51;;;;;;;8.20;7.40;;;21.50;99.90;;;;;;4978195;28;20440;-54
2021/07/25 06:56:21;;;;;;;9.50;7.50;;;21.40;99.90;;;;;;4959839;28;20444;-54
2021/07/25 06:58:48;;;;;;;10.70;7.73;;;21.60;99.90;;;;;;4959134;29;20926;-57
2021/07/25 07:01:16;;;;;;;7.80;7.10;;;21.80;99.90;;;;;;4958992;29;20836;-53
2021/07/25 07:03:43;;;;;;;8.23;7.20;;;21.90;99.90;;;;;;4967034;28;20472;-57
2021/07/25 07:06:11;;;;;;;7.47;6.77;;;22.10;99.90;;;;;;4971789;28;20932;-57
2021/07/25 07:08:39;;;;;;;7.77;6.93;;;22.40;99.90;;;;;;4976650;28;20462;-56
2021/07/25 07:11:09;;;;;;;8.37;7.63;;;22.40;99.90;;;;;;4975346;28;20914;-56
2021/07/25 07:13:45;;;;;;;7.50;6.70;;;22.60;99.90;;;;;;4977038;28;20458;-58
2021/07/25 07:16:14;;;;;;;10.20;6.40;;;23.00;99.90;;;;;;4976262;28;20513;-56
2021/07/25 07:18:44;;;;;;;8.30;7.50;;;23.20;99.90;;;;;;4977338;28;20805;-53
2021/07/25 07:21:13;;;;;;;7.33;6.63;;;23.30;99.90;;;;;;4976769;28;20439;-53
2021/07/25 07:23:40;;;;;;;7.73;6.53;;;23.60;99.90;;;;;;4976687;28;20850;-55
2021/07/25 07:26:12;;;;;;;7.23;6.60;;;23.50;99.90;;;;;;4973085;28;20532;-57
2021/07/25 07:28:40;;;;;;;8.17;7.37;;;23.70;99.90;;;;;;4975784;28;20636;-56
2021/07/25 07:31:07;;;;;;;7.53;6.83;;;24.10;99.90;;;;;;4978612;28;20441;-56
2021/07/25 07:33:34;;;;;;;6.40;5.90;;;24.30;99.90;;;;;;4962223;29;20496;-58
2021/07/25 07:36:03;;;;;;;6.90;6.33;;;24.50;99.90;;;;;;4979853;28;20485;-56
2021/07/25 07:38:32;;;;;;;7.63;6.60;;;24.80;99.90;;;;;;4980953;28;20457;-52
2021/07/25 07:40:59;;;;;;;6.63;6.03;;;24.90;99.90;;;;;;4980845;28;20569;-53
2021/07/25 07:43:27;;;;;;;6.90;6.20;;;24.90;99.90;;;;;;4981119;28;20466;-55
2021/07/25 07:45:57;;;;;;;7.10;6.40;;;25.00;99.90;;;;;;4980870;28;20466;-54
2021/07/25 07:48:25;;;;;;;6.30;5.70;;;25.00;99.90;;;;;;4980652;28;20437;-57
2021/07/25 07:50:52;;;;;;;6.67;6.07;;;25.50;99.30;;;;;;4981106;28;20473;-55
2021/07/25 07:53:20;;;;;;;7.40;5.97;;;25.90;97.20;;;;;;4981411;28;20887;-55
2021/07/25 07:55:47;;;;;;;8.40;6.03;;;25.60;95.20;;;;;;4998839;28;20511;-53
2021/07/25 07:58:14;;;;;;;6.50;5.40;;;25.60;95.70;;;;;;5000834;28;20464;-51
2021/07/25 08:00:41;;;;;;;9.00;6.17;;;25.50;96.00;;;;;;4985901;28;20453;-56
2021/07/25 08:03:10;;;;;;;6.87;6.00;;;25.50;94.70;;;;;;4974786;28;20470;-56
2021/07/25 08:05:37;;;;;;;6.17;5.50;;;25.50;94.00;;;;;;4983292;28;20834;-57
2021/07/25 08:08:05;;;;;;;6.47;5.70;;;25.60;94.70;;;;;;4980978;28;20501;-54
2021/07/25 08:10:32;;;;;;;7.00;5.70;;;25.50;94.60;;;;;;4982098;28;20470;-57
2021/07/25 08:12:59;;;;;;;7.17;6.57;;;25.70;96.10;;;;;;4981001;28;20462;-54
2021/07/25 08:15:26;;;;;;;6.80;6.20;;;25.90;95.20;;;;;;4981675;28;20501;-52
2021/07/25 08:17:56;;;;;;;6.73;5.50;;;25.90;94.70;;;;;;4982414;28;20543;-56
2021/07/25 08:20:25;;;;;;;6.50;6.00;;;25.90;94.40;;;;;;4981995;28;20462;-54
2021/07/25 08:22:55;;;;;;;7.07;6.13;;;26.00;94.00;;;;;;4994354;28;20458;-54
2021/07/25 08:25:22;;;;;;;5.93;5.33;;;26.20;93.40;;;;;;4981598;28;20887;-54
2021/07/25 08:27:53;;;;;;;7.10;6.50;;;26.60;93.10;;;;;;4979815;28;20465;-56
2021/07/25 08:30:20;;;;;;;7.10;6.50;;;26.80;92.30;;;;;;4980678;28;20524;-58
2021/07/25 08:32:50;;;;;;;7.80;6.47;;;26.80;91.40;;;;;;4981035;28;20470;-55
2021/07/25 08:35:17;;;;;;;6.20;5.73;;;26.80;91.50;;;;;;4980250;28;20927;-55
2021/07/25 09:14:12;;;;;;;5.30;4.90;;;28.80;86.60;;;;;;5365826;23;21362;-57
2021/07/25 09:16:41;;;;;;;5.93;5.43;;;29.00;81.50;;;;;;4979678;28;20794;-58
2021/07/25 09:19:10;;;;;;;5.53;4.90;;;29.30;81.10;;;;;;4979758;28;20524;-54
2021/07/25 09:21:40;;;;;;;5.60;5.10;;;29.40;77.10;;;;;;4979091;28;20842;-54
2021/07/25 09:24:18;;;;;;;5.97;5.47;;;29.20;77.60;;;;;;4979731;28;20466;-57
2021/07/25 09:26:59;;;;;;;5.43;5.03;;;28.90;78.70;;;;;;4979792;28;20902;-55
2021/07/25 09:29:36;;;;;;;6.30;5.27;;;28.90;78.20;;;;;;4979431;28;20907;-56
2021/07/25 10:11:35;;;;;;;5.67;5.17;;;28.80;74.80;;;;;;5109672;23;20564;-56
2021/07/25 10:14:03;;;;;;;5.40;4.90;;;29.10;73.80;;;;;;4979122;28;20444;-54
2021/07/25 10:16:30;;;;;;;5.17;4.67;;;29.60;72.50;;;;;;4978569;28;20497;-54
2021/07/25 10:18:58;;;;;;;5.10;4.80;;;29.30;72.10;;;;;;4978559;28;20466;-48
2021/07/25 10:21:32;;;;;;;4.73;4.33;;;29.30;73.70;;;;;;4977785;28;20893;-52
2021/07/25 10:24:02;;;;;;;5.63;5.23;;;29.00;71.00;;;;;;4977691;28;20477;-53
2021/07/25 10:26:31;;;;;;;5.43;4.80;;;29.00;70.60;;;;;;4974834;28;20561;-52
2021/07/25 10:29:02;;;;;;;4.77;4.47;;;29.00;69.40;;;;;;4976587;28;20564;-54
2021/07/25 10:31:29;;;;;;;7.40;4.93;;;29.00;69.70;;;;;;4974556;28;20466;-53
2021/07/25 10:33:56;;;;;;;5.20;4.73;;;28.70;69.00;;;;;;4974705;28;20466;-54
2021/07/25 10:36:24;;;;;;;5.40;5.00;;;28.10;71.20;;;;;;4974084;28;20550;-54
2021/07/25 10:38:52;;;;;;;5.37;4.97;;;27.30;73.60;;;;;;4975907;28;20505;-57
2021/07/25 10:41:23;;;;;;;4.97;4.57;;;27.00;74.10;;;;;;4952268;28;20484;-56
2021/07/25 10:43:54;;;;;;;4.57;4.17;;;27.60;76.90;;;;;;4977962;28;20921;-55
2021/07/25 10:46:23;;;;;;;5.00;4.60;;;28.50;72.00;;;;;;4975491;28;20798;-59
2021/07/25 10:49:14;;;;;;;5.27;4.77;;;28.30;70.30;;;;;;4977528;28;20462;-57
2021/07/25 10:52:03;;;;;;;4.90;4.50;;;28.00;71.60;;;;;;4976972;28;20885;-58
2021/07/25 10:54:35;;;;;;;4.30;4.00;;;27.90;71.50;;;;;;4968357;28;20848;-56
2021/07/25 10:57:03;;;;;;;4.53;4.13;;;27.60;71.70;;;;;;4972521;28;20532;-58
2021/07/25 10:59:50;;;;;;;4.80;4.47;;;27.50;71.60;;;;;;4977883;28;20470;-56
2021/07/25 11:02:58;;;;;;;4.40;4.00;;;27.30;72.00;;;;;;4977621;28;20545;-57
2021/07/25 11:05:26;;;;;;;5.30;4.60;;;26.90;70.90;;;;;;4938184;28;20481;-58
2021/07/25 11:08:02;;;;;;;5.40;4.97;;;26.40;72.80;;;;;;4980671;28;20469;-57
2021/07/25 11:10:36;;;;;;;4.37;4.00;;;26.50;74.00;;;;;;4980803;28;20583;-53
2021/07/25 11:13:12;;;;;;;5.17;4.77;;;26.60;73.30;;;;;;4981918;28;20461;-51
2021/07/25 11:15:42;;;;;;;5.00;4.47;;;26.90;73.00;;;;;;4981379;28;20961;-52
2021/07/25 11:18:12;;;;;;;4.10;3.60;;;27.40;70.20;;;;;;4981451;28;20477;-52
2021/07/25 11:20:56;;;;;;;4.70;4.30;;;28.20;70.10;;;;;;4980355;28;20458;-52
2021/07/25 11:23:42;;;;;;;4.70;4.30;;;28.80;67.60;;;;;;4980522;28;20466;-55
2021/07/25 11:26:38;;;;;;;5.00;4.60;;;28.80;65.80;;;;;;4980827;28;20464;-54
2021/07/25 11:29:13;;;;;;;4.40;4.10;;;28.20;67.40;;;;;;4953895;29;20477;-58
2021/07/25 12:08:32;;;;;;;4.63;4.30;;;29.50;64.90;;;;;;2760787;23;20512;-54
2021/07/25 12:11:04;;;;;;;5.13;4.63;;;30.40;62.60;;;;;;4979703;28;20755;-59
2021/07/25 12:13:31;;;;;;;5.93;5.50;;;30.10;61.20;;;;;;4979403;28;20907;-57
2021/07/25 12:16:04;;;;;;;5.50;5.00;;;29.20;62.20;;;;;;4980320;28;20832;-58
2021/07/25 12:18:34;;;;;;;6.40;5.27;;;27.90;65.30;;;;;;4980150;28;20751;-56
2021/07/25 13:00:23;;;;;;;4.47;4.17;;;28.00;68.30;;;;;;4636847;23;20498;-55
2021/07/25 13:05:37;;;;;;;6.70;4.80;;;29.00;65.10;;;;;;4943598;28;20449;-57
2021/07/25 13:08:10;;;;;;;4.40;4.00;;;28.60;64.20;;;;;;4978901;28;20458;-58
2021/07/25 13:10:37;;;;;;;4.47;3.70;;;28.40;64.00;;;;;;4978617;28;20481;-57
2021/07/25 13:13:05;;;;;;;4.40;4.10;;;28.00;65.80;;;;;;4979867;28;20454;-57
2021/07/25 13:15:34;;;;;;;4.47;4.07;;;28.10;66.80;;;;;;4978213;28;20493;-56
2021/07/25 13:18:01;;;;;;;3.80;3.50;;;28.90;66.80;;;;;;4977854;28;20834;-55
2021/07/25 13:20:31;;;;;;;4.23;3.90;;;29.70;64.30;;;;;;4977198;28;20914;-58
2021/07/25 13:23:00;;;;;;;5.10;4.63;;;30.10;61.50;;;;;;4979391;28;20468;-57
2021/07/25 13:25:28;;;;;;;4.50;4.10;;;30.30;60.00;;;;;;4978402;28;20552;-57
2021/07/25 13:27:55;;;;;;;5.60;4.40;;;30.60;59.30;;;;;;4978769;28;20458;-58
2021/07/25 13:30:25;;;;;;;4.40;4.10;;;30.80;58.90;;;;;;4978308;28;20485;-58
2021/07/25 13:32:53;;;;;;;4.30;4.00;;;30.90;58.10;;;;;;4978360;28;20512;-58
2021/07/25 13:35:20;;;;;;;4.57;4.23;;;30.90;57.80;;;;;;4979158;28;20466;-58
2021/07/25 13:37:48;;;;;;;4.20;3.80;;;31.10;57.40;;;;;;4978742;28;20432;-56
2021/07/25 13:40:15;;;;;;;4.43;4.13;;;31.30;57.40;;;;;;4978614;28;20768;-56
2021/07/25 13:42:43;;;;;;;4.10;3.70;;;31.70;56.70;;;;;;4978875;28;20895;-58
2021/07/25 13:45:11;;;;;;;4.20;3.80;;;31.20;57.20;;;;;;4978784;28;20505;-56
2021/07/25 13:47:41;;;;;;;5.23;4.83;;;29.90;57.80;;;;;;4979150;28;20458;-54
2021/07/25 13:50:13;;;;;;;4.47;4.07;;;29.90;59.90;;;;;;4978651;28;20470;-59
2021/07/25 13:52:44;;;;;;;4.20;3.90;;;30.20;60.20;;;;;;4978515;28;20520;-58
2021/07/25 13:55:12;;;;;;;4.70;4.30;;;29.80;59.40;;;;;;4979112;28;20462;-55
2021/07/25 13:57:39;;;;;;;4.50;4.20;;;29.70;61.40;;;;;;4978477;28;20497;-57
2021/07/25 14:00:12;;;;;;;4.93;4.60;;;29.60;61.40;;;;;;4978186;28;20966;-54
2021/07/25 14:02:39;;;;;;;3.80;3.50;;;29.70;62.10;;;;;;4976587;28;20476;-58
2021/07/25 14:05:07;;;;;;;7.83;4.70;;;30.20;61.50;;;;;;4971643;28;20466;-56
2021/07/25 14:07:36;;;;;;;4.33;3.97;;;30.70;60.10;;;;;;4978590;28;20949;-58
2021/07/25 14:10:05;;;;;;;4.00;3.70;;;30.70;59.20;;;;;;4978059;28;20469;-57
2021/07/25 14:12:32;;;;;;;4.23;3.90;;;30.50;59.60;;;;;;4978364;28;20556;-57
2021/07/25 14:15:00;;;;;;;4.93;4.40;;;29.80;60.60;;;;;;4977597;28;20466;-56
2021/07/25 14:17:27;;;;;;;4.70;4.40;;;28.90;61.90;;;;;;4978169;28;20494;-57
2021/07/25 14:19:54;;;;;;;5.10;4.07;;;28.10;64.30;;;;;;4977717;28;20907;-57
2021/07/25 14:22:22;;;;;;;7.70;5.00;;;27.60;66.50;;;;;;4977927;28;20469;-58
2021/07/25 14:24:55;;;;;;;7.23;4.10;;;27.30;67.60;;;;;;4978085;28;20470;-56
2021/07/25 14:27:22;;;;;;;4.70;4.30;;;27.70;68.20;;;;;;4978595;28;20790;-58
2021/07/25 14:29:49;;;;;;;5.23;4.50;;;27.80;66.60;;;;;;4978069;28;20466;-56
2021/07/25 14:32:16;;;;;;;5.60;4.33;;;27.80;66.20;;;;;;4978602;28;20465;-55
2021/07/25 14:34:46;;;;;;;4.77;4.37;;;27.90;67.00;;;;;;4978268;28;20848;-56
2021/07/25 14:37:13;;;;;;;5.00;4.60;;;28.70;67.90;;;;;;4977870;28;20498;-57
2021/07/25 14:39:40;;;;;;;6.40;4.10;;;29.40;65.10;;;;;;4976998;28;20461;-57
2021/07/25 14:42:12;;;;;;;4.87;4.40;;;29.60;64.30;;;;;;4978221;28;20473;-56
2021/07/25 14:44:39;;;;;;;4.33;4.03;;;30.00;62.90;;;;;;4977911;28;20476;-53
2021/07/25 14:47:12;;;;;;;5.43;4.07;;;30.30;61.70;;;;;;4977036;28;20461;-58
2021/07/25 14:49:39;;;;;;;5.00;4.53;;;30.20;60.90;;;;;;4977015;28;20494;-55
2021/07/25 14:52:09;;;;;;;5.40;4.80;;;28.90;61.90;;;;;;4978021;28;20783;-58
2021/07/25 14:54:38;;;;;;;3.87;3.60;;;28.20;64.00;;;;;;4977736;28;20473;-58
2021/07/25 14:57:06;;;;;;;4.50;4.00;;;27.60;65.90;;;;;;4978044;28;20580;-57
2021/07/25 15:34:41;;;;;;;4.50;4.10;;;26.60;69.70;;;;;;5234368;23;20512;-58
2021/07/25 16:49:21;;;;;;;4.13;3.90;;;25.00;76.80;;;;;;2946415;23;20768;-56
2021/07/25 16:51:52;;;;;;;4.40;4.00;;;24.90;79.00;;;;;;4977875;28;20498;-58
2021/07/25 16:54:22;;;;;;;5.30;4.90;;;24.80;80.50;;;;;;4979968;28;20886;-56
2021/07/25 16:56:49;;;;;;;5.00;4.50;;;24.80;81.90;;;;;;4979893;28;20501;-56
2021/07/25 16:59:16;;;;;;;5.77;4.40;;;24.40;82.30;;;;;;4979972;28;20472;-56
2021/07/25 17:01:48;;;;;;;5.07;4.57;;;24.30;84.70;;;;;;4980096;28;20937;-58
2021/07/25 17:04:20;;;;;;;4.63;4.17;;;24.20;87.00;;;;;;4968999;28;20470;-58
2021/07/25 17:06:48;;;;;;;4.27;3.87;;;24.10;88.80;;;;;;4979040;28;20763;-56
2021/07/25 17:09:15;;;;;;;6.83;4.37;;;23.90;87.80;;;;;;4978888;28;20564;-56
2021/07/25 17:11:51;;;;;;;4.53;4.00;;;23.80;86.10;;;;;;4979989;28;20469;-58